createdAt,value
2022-10-05T00:01:42.831Z,101093.47
2022-10-05T00:04:19.964Z,101090.66
2022-10-05T00:06:51.002Z,101080.53
2022-10-05T00:09:19.343Z,101070.13
2022-10-05T00:11:46.722Z,101080.53
2022-10-05T00:14:30.888Z,101066.78
2022-10-05T00:16:57.985Z,101074.94
2022-10-05T00:19:28.404Z,101062.00
2022-10-05T00:22:06.831Z,101057.84
2022-10-05T00:24:37.001Z,101063.47
2022-10-05T00:27:39.852Z,101064.31
2022-10-05T00:30:12.631Z,101044.09
2022-10-05T00:32:39.891Z,101056.47
2022-10-05T00:35:11.703Z,101049.72
2022-10-05T00:37:38.653Z,101048.06
2022-10-05T00:40:20.563Z,101048.06
2022-10-05T00:42:47.293Z,101047.22
2022-10-05T00:45:21.548Z,101044.75
2022-10-05T00:47:48.123Z,101037.44
2022-10-05T00:50:26.885Z,101045.56
2022-10-05T00:52:58.799Z,101043.56
2022-10-05T00:55:42.551Z,101043.56
2022-10-05T00:58:32.525Z,101044.75
2022-10-05T01:01:06.316Z,101038.78
2022-10-05T01:03:51.616Z,101038.78
2022-10-05T01:06:40.513Z,101041.59
2022-10-05T01:09:12.350Z,101049.19
2022-10-05T01:11:43.949Z,101047.22
2022-10-05T01:14:15.967Z,101040.75
2022-10-05T01:16:42.888Z,101035.16
2022-10-05T01:19:18.840Z,101032.34
2022-10-05T01:21:50.737Z,101026.72
2022-10-05T01:24:31.731Z,101023.09
2022-10-05T01:27:16.881Z,101026.22
2022-10-05T01:29:58.755Z,101025.91
2022-10-05T01:32:43.176Z,101009.34
2022-10-05T01:35:18.811Z,101013.84
2022-10-05T01:38:01.328Z,101016.66
2022-10-05T01:40:31.392Z,101004.56
2022-10-05T01:43:16.608Z,101000.63
2022-10-05T01:46:01.795Z,101000.63
2022-10-05T01:48:46.584Z,100994.19
2022-10-05T01:51:28.087Z,100995.00
2022-10-05T01:54:00.718Z,100983.25
2022-10-05T01:56:39.962Z,100987.72
2022-10-05T01:59:19.103Z,100979.28
2022-10-05T02:01:53.196Z,100976.47
2022-10-05T02:04:56.480Z,100970.88
2022-10-05T02:07:14.779Z,100973.69
2022-10-05T02:09:48.692Z,100966.91
2022-10-05T02:12:18.921Z,100970.88
2022-10-05T02:14:49.550Z,100979.28
2022-10-05T02:17:28.619Z,100971.69
2022-10-05T02:20:04.301Z,100950.38
2022-10-05T02:22:35.007Z,100959.63
2022-10-05T02:25:04.112Z,100957.66
2022-10-05T02:27:40.999Z,100959.63
2022-10-05T02:30:11.635Z,100948.41
2022-10-05T02:32:51.428Z,100952.34
2022-10-05T02:35:19.502Z,100944.75
2022-10-05T02:37:50.446Z,100941.63
2022-10-05T02:40:35.669Z,100933.50
2022-10-05T02:43:11.738Z,100936.03
2022-10-05T02:45:38.358Z,100933.22
2022-10-05T02:48:23.841Z,100931.53
2022-10-05T02:50:58.479Z,100922.28
2022-10-05T02:53:25.678Z,100919.47
2022-10-05T02:55:59.782Z,100930.69
2022-10-05T02:58:29.240Z,100923.94
2022-10-05T03:01:00.668Z,100921.44
2022-10-05T03:03:27.346Z,100913.00
2022-10-05T03:05:53.928Z,100918.63
2022-10-05T03:08:23.662Z,100903.44
2022-10-05T03:10:58.198Z,100909.91
2022-10-05T03:13:30.817Z,100896.16
2022-10-05T03:16:11.225Z,100903.44
2022-10-05T03:18:43.613Z,100892.22
2022-10-05T03:21:10.244Z,100903.44
2022-10-05T03:23:39.670Z,100901.47
2022-10-05T03:26:18.580Z,100900.63
2022-10-05T03:28:54.142Z,100892.22
2022-10-05T03:31:25.922Z,100892.22
2022-10-05T03:33:52.530Z,100894.19
2022-10-05T03:36:21.900Z,100899.50
2022-10-05T03:39:10.888Z,100887.44
2022-10-05T03:41:45.448Z,100880.97
2022-10-05T03:44:19.832Z,100872.56
2022-10-05T03:47:05.535Z,100878.16
2022-10-05T03:49:35.295Z,100862.44
2022-10-05T03:52:25.645Z,100872.56
2022-10-05T03:54:52.208Z,100874.53
2022-10-05T03:57:20.767Z,100862.44
2022-10-05T03:59:56.551Z,100857.66
2022-10-05T04:02:52.674Z,100866.09
2022-10-05T04:05:22.046Z,100865.25
2022-10-05T04:07:52.291Z,100862.44
2022-10-05T04:10:23.790Z,100868.06
2022-10-05T04:13:10.612Z,100856.00
2022-10-05T04:15:42.748Z,100852.88
2022-10-05T04:18:31.211Z,100850.38
2022-10-05T04:21:04.326Z,100851.22
2022-10-05T04:23:40.352Z,100849.53
2022-10-05T04:26:10.705Z,100838.31
2022-10-05T04:28:52.448Z,100831.56
2022-10-05T04:31:29.445Z,100835.50
2022-10-05T04:34:02.283Z,100848.41
2022-10-05T04:36:45.451Z,100836.34
2022-10-05T04:39:31.415Z,100835.19
2022-10-05T04:42:16.657Z,100844.75
2022-10-05T04:44:59.129Z,100831.56
2022-10-05T04:47:35.528Z,100838.00
2022-10-05T04:50:15.694Z,100834.34
2022-10-05T04:52:49.892Z,100825.63
2022-10-05T04:55:36.820Z,100825.94
2022-10-05T04:58:03.409Z,100821.97
2022-10-05T05:00:49.248Z,100818.34
2022-10-05T05:03:21.852Z,100814.69
2022-10-05T05:06:15.988Z,100807.09
2022-10-05T05:08:59.904Z,100804.59
2022-10-05T05:11:34.971Z,100814.69
2022-10-05T05:14:04.600Z,100813.03
2022-10-05T05:16:41.730Z,100797.00
2022-10-05T05:19:20.604Z,100794.19
2022-10-05T05:21:52.335Z,100794.19
2022-10-05T05:24:33.487Z,100773.69
2022-10-05T05:27:18.704Z,100782.97
2022-10-05T05:30:03.998Z,100781.28
2022-10-05T05:32:41.743Z,100777.66
2022-10-05T05:35:20.631Z,100773.69
2022-10-05T05:37:53.838Z,100759.66
2022-10-05T05:40:34.836Z,100759.66
2022-10-05T05:43:01.412Z,100753.22
2022-10-05T05:45:42.145Z,100754.88
2022-10-05T05:48:16.471Z,100763.59
2022-10-05T05:50:49.707Z,100746.75
2022-10-05T05:53:16.363Z,100741.97
2022-10-05T05:55:45.862Z,100755.19
2022-10-05T05:58:12.466Z,100752.38
2022-10-05T06:00:43.165Z,100743.94
2022-10-05T06:03:14.111Z,100751.22
2022-10-05T06:05:50.128Z,100753.22
2022-10-05T06:08:22.532Z,100746.75
2022-10-05T06:10:53.247Z,100749.56
2022-10-05T06:13:23.459Z,100740.00
2022-10-05T06:15:56.272Z,100748.41
2022-10-05T06:18:23.390Z,100750.09
2022-10-05T06:20:50.084Z,100755.72
2022-10-05T06:23:18.544Z,100756.84
2022-10-05T06:25:45.137Z,100765.28
2022-10-05T06:28:13.030Z,100754.03
2022-10-05T06:30:49.096Z,100757.88
2022-10-05T06:33:24.488Z,100763.84
2022-10-05T06:36:03.555Z,100771.41
2022-10-05T06:38:33.092Z,100764.13
2022-10-05T06:41:02.815Z,100771.41
2022-10-05T06:43:49.678Z,100775.38
2022-10-05T06:46:25.874Z,100774.22
2022-10-05T06:49:04.644Z,100757.38
2022-10-05T06:51:37.488Z,100751.31
2022-10-05T06:54:23.050Z,100757.38
2022-10-05T06:57:10.723Z,100757.69
2022-10-05T06:59:45.881Z,100758.81
2022-10-05T07:02:26.905Z,100754.75
2022-10-05T07:05:14.141Z,100765.34
2022-10-05T07:07:40.828Z,100756.91
2022-10-05T07:10:07.511Z,100756.28
2022-10-05T07:12:37.277Z,100746.06
2022-10-05T07:15:06.850Z,100737.31
2022-10-05T07:17:49.975Z,100738.66
2022-10-05T07:20:35.101Z,100727.63
2022-10-05T07:23:23.276Z,100723.84
2022-10-05T07:25:57.688Z,100718.41
2022-10-05T07:28:40.145Z,100718.94
2022-10-05T07:31:09.754Z,100719.75
2022-10-05T07:33:51.820Z,100723.91
2022-10-05T07:36:43.159Z,100713.78
2022-10-05T07:39:21.113Z,100716.31
2022-10-05T07:41:56.435Z,100717.66
2022-10-05T07:44:28.184Z,100708.38
2022-10-05T07:46:58.626Z,100704.09
2022-10-05T07:49:35.786Z,100692.53
2022-10-05T07:52:06.541Z,100702.28
2022-10-05T07:54:33.100Z,100707.09
2022-10-05T07:57:25.762Z,100701.97
2022-10-05T08:00:13.874Z,100706.94
2022-10-05T08:02:52.494Z,100704.13
2022-10-05T08:05:24.197Z,100691.09
2022-10-05T08:07:54.550Z,100700.03
2022-10-05T08:10:37.846Z,100703.16
2022-10-05T08:13:19.841Z,100694.44
2022-10-05T08:15:50.513Z,100683.66
2022-10-05T08:18:23.087Z,100684.00
2022-10-05T08:20:52.759Z,100698.91
2022-10-05T08:23:23.967Z,100687.66
2022-10-05T08:25:55.672Z,100686.47
2022-10-05T08:28:34.470Z,100697.72
2022-10-05T08:31:11.948Z,100685.34
2022-10-05T08:33:46.217Z,100688.16
2022-10-05T08:36:14.483Z,100699.09
2022-10-05T08:38:42.030Z,100677.72
2022-10-05T08:41:14.946Z,100693.78
2022-10-05T08:43:50.552Z,100681.06
2022-10-05T08:46:23.150Z,100679.09
2022-10-05T08:49:10.157Z,100673.94
2022-10-05T08:52:06.120Z,100665.81
2022-10-05T08:54:51.463Z,100665.03
2022-10-05T08:57:36.248Z,100662.53
2022-10-05T09:00:03.065Z,100656.59
2022-10-05T09:02:32.508Z,100655.75
2022-10-05T09:05:34.847Z,100660.19
2022-10-05T09:08:20.971Z,100662.22
2022-10-05T09:10:47.710Z,100659.06
2022-10-05T09:13:36.200Z,100653.78
2022-10-05T09:16:14.885Z,100650.44
2022-10-05T09:18:44.682Z,100662.84
2022-10-05T09:21:24.324Z,100652.72
2022-10-05T09:24:02.766Z,100666.00
2022-10-05T09:26:29.609Z,100651.41
2022-10-05T09:28:56.267Z,100648.59
2022-10-05T09:31:41.288Z,100655.38
2022-10-05T09:34:13.723Z,100646.09
2022-10-05T09:36:59.106Z,100643.28
2022-10-05T09:39:43.388Z,100640.00
2022-10-05T09:42:25.445Z,100637.66
2022-10-05T09:45:10.628Z,100634.03
2022-10-05T09:47:46.014Z,100641.31
2022-10-05T09:50:22.987Z,100641.50
2022-10-05T09:53:03.865Z,100636.53
2022-10-05T09:55:49.009Z,100653.38
2022-10-05T09:58:18.502Z,100643.28
2022-10-05T10:00:54.226Z,100633.22
2022-10-05T10:03:49.120Z,100618.31
2022-10-05T10:06:22.010Z,100627.06
2022-10-05T10:09:07.055Z,100624.25
2022-10-05T10:11:33.659Z,100624.25
2022-10-05T10:14:20.351Z,100623.75
2022-10-05T10:17:07.046Z,100618.47
2022-10-05T10:19:40.307Z,100613.69
2022-10-05T10:22:39.640Z,100619.63
2022-10-05T10:25:11.561Z,100630.34
2022-10-05T10:28:07.330Z,100622.75
2022-10-05T10:30:52.537Z,100633.50
2022-10-05T10:33:37.391Z,100625.38
2022-10-05T10:36:39.551Z,100625.38
2022-10-05T10:39:18.148Z,100616.44
2022-10-05T10:41:47.544Z,100618.09
2022-10-05T10:44:14.224Z,100606.34
2022-10-05T10:46:40.995Z,100601.03
2022-10-05T10:49:26.345Z,100611.97
2022-10-05T10:52:01.910Z,100609.47
2022-10-05T10:54:47.041Z,100605.00
2022-10-05T10:57:32.052Z,100596.56
2022-10-05T11:00:05.911Z,100594.09
2022-10-05T11:02:51.997Z,100612.94
2022-10-05T11:05:18.598Z,100604.81
2022-10-05T11:08:00.236Z,100616.06
2022-10-05T11:10:26.836Z,100611.59
2022-10-05T11:13:08.469Z,100604.00
2022-10-05T11:15:58.305Z,100610.28
2022-10-05T11:18:24.939Z,100614.75
2022-10-05T11:20:57.613Z,100599.03
2022-10-05T11:23:42.963Z,100602.97
2022-10-05T11:26:15.468Z,100595.69
2022-10-05T11:29:03.855Z,100627.78
2022-10-05T11:31:37.911Z,100607.59
2022-10-05T11:34:11.695Z,100609.88
2022-10-05T11:36:41.160Z,100645.28
2022-10-05T11:39:10.816Z,100622.31
2022-10-05T11:41:58.279Z,100619.81
2022-10-05T11:44:34.210Z,100609.38
2022-10-05T11:47:08.701Z,100630.22
2022-10-05T11:49:35.355Z,100618.13
2022-10-05T11:52:01.988Z,100639.78
2022-10-05T11:57:49.883Z,100630.88
2022-10-05T12:00:18.531Z,100639.28
2022-10-05T12:03:03.691Z,100626.38
2022-10-05T12:05:49.125Z,100626.38
2022-10-05T12:08:34.271Z,100642.72
2022-10-05T12:11:25.888Z,100634.28
2022-10-05T12:14:08.318Z,100635.78
2022-10-05T12:16:48.445Z,100623.72
2022-10-05T12:19:28.625Z,100615.59
2022-10-05T12:22:18.775Z,100631.66
2022-10-05T12:25:01.764Z,100628.00
2022-10-05T12:27:32.230Z,100611.16
2022-10-05T12:30:01.834Z,100618.75
2022-10-05T12:32:37.029Z,100610.63
2022-10-05T12:35:03.567Z,100629.16
2022-10-05T12:37:36.750Z,100618.22
2022-10-05T12:40:08.295Z,100621.03
2022-10-05T12:42:51.412Z,100618.56
2022-10-05T12:45:33.125Z,100624.97
2022-10-05T12:47:59.669Z,100613.75
2022-10-05T12:50:36.998Z,100627.28
2022-10-05T12:53:09.601Z,100628.97
2022-10-05T12:55:39.239Z,100625.31
2022-10-05T12:58:11.683Z,100612.41
2022-10-05T13:00:44.031Z,100611.59
2022-10-05T13:03:18.465Z,100611.59
2022-10-05T13:05:50.570Z,100607.09
2022-10-05T13:08:21.305Z,100605.44
2022-10-05T13:11:00.008Z,100598.16
2022-10-05T13:13:28.512Z,100603.44
2022-10-05T13:16:17.265Z,100586.91
2022-10-05T13:18:54.570Z,100601.81
2022-10-05T13:21:26.785Z,100585.25
2022-10-05T13:24:02.687Z,100590.03
2022-10-05T13:26:32.737Z,100599.31
2022-10-05T13:29:17.864Z,100602.09
2022-10-05T13:31:50.510Z,100611.38
2022-10-05T13:34:26.352Z,100618.97
2022-10-05T13:36:59.370Z,100668.69
2022-10-05T13:39:44.462Z,100674.31
2022-10-05T13:42:22.903Z,100672.66
2022-10-05T13:45:01.571Z,100672.66
2022-10-05T13:47:31.799Z,100679.09
2022-10-05T13:50:14.114Z,100674.63
2022-10-05T13:53:02.329Z,100678.25
2022-10-05T13:55:58.122Z,100672.66
2022-10-05T13:58:33.874Z,100687.03
2022-10-05T14:01:02.384Z,100701.09
2022-10-05T14:03:35.244Z,100680.59
2022-10-05T14:06:04.177Z,100678.25
2022-10-05T14:08:33.627Z,100703.56
2022-10-05T14:11:03.196Z,100740.06
2022-10-05T14:13:46.886Z,100755.59
2022-10-05T14:16:13.665Z,100753.63
2022-10-05T14:19:00.735Z,100746.03
2022-10-05T14:21:31.111Z,100745.19
2022-10-05T14:24:32.076Z,100748.00
2022-10-05T14:27:24.811Z,100777.88
2022-10-05T14:29:56.503Z,100791.66
2022-10-05T14:32:43.415Z,100798.75
2022-10-05T14:35:15.027Z,100801.88
2022-10-05T14:37:50.635Z,100795.34
2022-10-05T14:40:36.525Z,100797.44
2022-10-05T14:43:15.608Z,100805.13
2022-10-05T14:45:58.826Z,100804.66
2022-10-05T14:48:29.362Z,100816.59
2022-10-05T14:51:03.547Z,100827.25
2022-10-05T14:53:39.561Z,100825.75
2022-10-05T14:56:28.869Z,100833.53
2022-10-05T14:59:04.465Z,100846.47
2022-10-05T15:01:39.419Z,100851.25
2022-10-05T15:04:13.438Z,100861.16
2022-10-05T15:06:42.137Z,100875.22
2022-10-05T15:09:24.792Z,100865.44
2022-10-05T15:11:53.088Z,100869.72
2022-10-05T15:14:22.575Z,100876.78
2022-10-05T15:16:54.106Z,100882.75
2022-10-05T15:19:42.603Z,100892.97
2022-10-05T15:22:27.015Z,100901.53
2022-10-05T15:25:01.839Z,100906.63
2022-10-05T15:27:48.240Z,100918.22
2022-10-05T15:30:18.335Z,100932.88
2022-10-05T15:33:07.789Z,100951.22
2022-10-05T15:35:40.668Z,100965.88
2022-10-05T15:38:13.362Z,100970.16
2022-10-05T15:40:44.757Z,100956.75
2022-10-05T15:43:17.646Z,100959.56
2022-10-05T15:45:54.044Z,100963.81
2022-10-05T15:48:21.110Z,100975.69
2022-10-05T15:50:56.072Z,100986.72
2022-10-05T15:53:25.931Z,100985.06
2022-10-05T15:55:56.235Z,100982.53
2022-10-05T15:58:31.455Z,100992.94
2022-10-05T16:01:18.713Z,101003.69
2022-10-05T16:03:48.411Z,100991.91
2022-10-05T16:06:47.823Z,101018.66
2022-10-05T16:09:20.238Z,101027.41
2022-10-05T16:11:59.236Z,101038.09
2022-10-05T16:14:35.567Z,101053.28
2022-10-05T16:17:02.239Z,101052.75
2022-10-05T16:19:35.975Z,101048.25
2022-10-05T16:22:25.645Z,101057.84
2022-10-05T16:25:06.358Z,101071.38
2022-10-05T16:27:39.179Z,101070.03
2022-10-05T16:30:08.816Z,101066.03
2022-10-05T16:32:43.211Z,101084.56
2022-10-05T16:35:16.916Z,101087.38
2022-10-05T16:37:52.898Z,101093.34
2022-10-05T16:40:28.711Z,101095.31
2022-10-05T16:42:58.468Z,101104.88
2022-10-05T16:45:25.127Z,101109.66
2022-10-05T16:47:56.629Z,101112.47
2022-10-05T16:50:23.330Z,101107.97
2022-10-05T16:52:54.822Z,101124.00
2022-10-05T16:55:27.228Z,101129.94
2022-10-05T16:57:57.059Z,101132.75
2022-10-05T17:00:25.246Z,101141.16
2022-10-05T17:02:51.837Z,101143.97
2022-10-05T17:05:38.765Z,101159.16
2022-10-05T17:08:15.302Z,101155.22
2022-10-05T17:10:47.764Z,101163.09
2022-10-05T17:13:32.816Z,101176.31
2022-10-05T17:16:08.340Z,101182.25
2022-10-05T17:18:53.598Z,101193.50
2022-10-05T17:21:26.491Z,101198.28
2022-10-05T17:24:16.043Z,101202.50
2022-10-05T17:26:42.626Z,101198.84
2022-10-05T17:29:28.246Z,101211.25
2022-10-05T17:32:02.186Z,101217.16
2022-10-05T17:34:30.517Z,101223.91
2022-10-05T17:36:58.364Z,101236.28
2022-10-05T17:39:43.703Z,101252.28
2022-10-05T17:42:36.477Z,101247.84
2022-10-05T17:45:29.254Z,101261.88
2022-10-05T17:48:00.627Z,101277.91
2022-10-05T17:50:57.920Z,101276.50
2022-10-05T17:53:55.128Z,101294.53
2022-10-05T17:56:22.715Z,101300.44
2022-10-05T17:58:54.769Z,101306.88
2022-10-05T18:01:31.965Z,101321.22
2022-10-05T18:04:13.657Z,101326.84
2022-10-05T18:06:41.793Z,101332.44
2022-10-05T18:09:11.718Z,101342.34
2022-10-05T18:11:40.479Z,101357.22
2022-10-05T18:14:25.397Z,101359.19
2022-10-05T18:17:11.201Z,101366.22
2022-10-05T18:19:39.618Z,101367.88
2022-10-05T18:22:27.592Z,101381.41
2022-10-05T18:25:06.080Z,101393.78
2022-10-05T18:27:56.088Z,101392.94
2022-10-05T18:30:24.113Z,101411.75
2022-10-05T18:33:00.950Z,101410.06
2022-10-05T18:35:38.132Z,101416.00
2022-10-05T18:38:10.469Z,101413.47
2022-10-05T18:40:38.833Z,101422.75
2022-10-05T18:43:18.154Z,101437.06
2022-10-05T18:46:04.399Z,101439.03
2022-10-05T18:48:37.840Z,101445.78
2022-10-05T18:51:16.617Z,101449.75
2022-10-05T18:53:46.684Z,101468.56
2022-10-05T18:56:32.104Z,101463.22
2022-10-05T18:59:15.325Z,101476.97
2022-10-05T19:01:56.850Z,101491.31
2022-10-05T19:04:33.426Z,101490.78
2022-10-05T19:07:08.891Z,101496.41
2022-10-05T19:09:50.336Z,101502.28
2022-10-05T19:12:34.432Z,101510.72
2022-10-05T19:15:11.314Z,101521.94
2022-10-05T19:17:46.807Z,101532.63
2022-10-05T19:20:19.638Z,101536.28
2022-10-05T19:22:55.513Z,101543.00
2022-10-05T19:25:24.969Z,101568.00
2022-10-05T19:27:59.555Z,101571.09
2022-10-05T19:30:27.614Z,101573.88
2022-10-05T19:33:13.685Z,101570.56
2022-10-05T19:35:58.430Z,101586.28
2022-10-05T19:38:43.556Z,101596.66
2022-10-05T19:41:10.111Z,101595.28
2022-10-05T19:43:41.562Z,101601.75
2022-10-05T19:46:20.896Z,101603.72
2022-10-05T19:48:48.821Z,101612.13
2022-10-05T19:51:29.645Z,101625.38
2022-10-05T19:54:01.250Z,101626.16
2022-10-05T19:56:31.646Z,101629.81
2022-10-05T19:59:11.648Z,101640.78
2022-10-05T20:01:40.507Z,101645.78
2022-10-05T20:04:11.068Z,101654.50
2022-10-05T20:06:39.874Z,101648.81
2022-10-05T20:09:25.053Z,101649.94
2022-10-05T20:11:53.073Z,101675.47
2022-10-05T20:14:29.942Z,101670.38
2022-10-05T20:17:35.321Z,101680.19
2022-10-05T20:20:23.033Z,101692.53
2022-10-05T20:22:49.910Z,101677.88
2022-10-05T20:25:19.240Z,101687.72
2022-10-05T20:27:52.630Z,101693.84
2022-10-05T20:30:20.288Z,101696.91
2022-10-05T20:32:47.445Z,101705.31
2022-10-05T20:35:15.911Z,101719.31
2022-10-05T20:37:42.630Z,101727.72
2022-10-05T20:40:10.488Z,101736.69
2022-10-05T20:42:37.261Z,101743.41
2022-10-05T20:45:04.358Z,101743.66
2022-10-05T20:47:30.981Z,101747.00
2022-10-05T20:49:57.621Z,101760.50
2022-10-05T20:52:24.203Z,101773.13
2022-10-05T20:54:59.115Z,101775.66
2022-10-05T20:57:26.856Z,101782.38
2022-10-05T20:59:53.479Z,101788.81
2022-10-05T21:02:23.838Z,101800.59
2022-10-05T21:04:50.513Z,101799.47
2022-10-05T21:07:17.959Z,101802.00
2022-10-05T21:09:46.679Z,101810.97
2022-10-05T21:12:23.932Z,101813.50
2022-10-05T21:14:52.827Z,101821.66
2022-10-05T21:17:20.275Z,101836.53
2022-10-05T21:19:47.172Z,101838.19
2022-10-05T21:22:18.933Z,101842.69
2022-10-05T21:24:46.008Z,101858.44
2022-10-05T21:27:12.779Z,101852.81
2022-10-05T21:29:41.300Z,101855.34
2022-10-05T21:32:20.819Z,101861.81
2022-10-05T21:34:47.633Z,101863.47
2022-10-05T21:37:15.588Z,101866.28
2022-10-05T21:39:42.166Z,101869.94
2022-10-05T21:42:08.751Z,101880.91
2022-10-05T21:44:35.429Z,101883.72
2022-10-05T21:47:02.122Z,101898.63
2022-10-05T21:49:28.918Z,101903.38
2022-10-05T21:51:55.741Z,101909.84
2022-10-05T21:54:22.636Z,101905.06
2022-10-05T21:56:54.613Z,101905.91
2022-10-05T21:59:22.585Z,101910.38
2022-10-05T22:01:49.328Z,101916.31
2022-10-05T22:04:16.160Z,101922.47
2022-10-05T22:07:00.237Z,101917.16
2022-10-05T22:09:27.979Z,101932.34
2022-10-05T22:11:55.193Z,101928.69
2022-10-05T22:14:21.796Z,101933.19
2022-10-05T22:16:48.903Z,101933.19
2022-10-05T22:19:18.825Z,101938.25
2022-10-05T22:21:45.468Z,101943.88
2022-10-05T22:24:12.091Z,101952.31
2022-10-05T22:26:40.034Z,101954.28
2022-10-05T22:29:06.718Z,101966.38
2022-10-05T22:31:33.409Z,101962.72
2022-10-05T22:34:00.004Z,101965.28
2022-10-05T22:36:26.977Z,101973.97
2022-10-05T22:38:53.591Z,101963.31
2022-10-05T22:41:20.294Z,101975.41
2022-10-05T22:43:48.808Z,101976.25
2022-10-05T22:46:15.677Z,101975.41
2022-10-05T22:48:42.581Z,101979.91
2022-10-05T22:51:19.723Z,101978.22
2022-10-05T22:53:53.007Z,101990.00
2022-10-05T22:56:36.907Z,101982.72
2022-10-05T22:59:03.599Z,101992.25
2022-10-05T23:01:30.226Z,101997.03
2022-10-05T23:03:57.456Z,102007.69
2022-10-05T23:06:27.000Z,102008.81
2022-10-05T23:08:54.326Z,102007.69
2022-10-05T23:11:26.085Z,102015.28
2022-10-05T23:13:53.767Z,102014.44
2022-10-05T23:16:21.722Z,102033.31
2022-10-05T23:18:49.728Z,102030.50
2022-10-05T23:21:16.891Z,102035.28
2022-10-05T23:23:47.445Z,102040.34
2022-10-05T23:26:14.144Z,102040.91
2022-10-05T23:29:00.928Z,102046.81
2022-10-05T23:31:30.043Z,102054.13
2022-10-05T23:33:56.875Z,102056.94
2022-10-05T23:36:27.940Z,102064.50
2022-10-05T23:38:54.501Z,102083.34
2022-10-05T23:41:21.322Z,102081.66
2022-10-05T23:43:48.297Z,102083.63
2022-10-05T23:46:15.145Z,102091.22
2022-10-05T23:48:41.808Z,102082.78
2022-10-05T23:51:12.974Z,102087.59
2022-10-05T23:53:39.612Z,102089.56
2022-10-05T23:56:06.358Z,102099.97
2022-10-05T23:58:32.962Z,102099.97
